Time;durP1;ratioP1;P1;durP2;ratioP2;P2;SDS_P1;SDS_P2;PMS_P1;PMS_P2;Temp;Humidity;BMP_temperature;BMP_pressure;BME280_temperature;BME280_humidity;BME280_pressure;Samples;Min_cycle;Max_cycle;Signal;HPM_P1;HPM_P2
2023/02/14 00:00:07;;;;;;;26.47;16.10;;;;;;;5.75;56.44;99260.69;4997853;28;20206;-69
2023/02/14 00:02:32;;;;;;;32.77;16.90;;;;;;;5.80;55.38;99253.47;5003029;28;20184;-70
2023/02/14 00:04:58;;;;;;;27.57;17.53;;;;;;;5.82;55.32;99249.91;5002535;28;20483;-70
2023/02/14 00:07:23;;;;;;;31.00;17.80;;;;;;;5.77;55.58;99251.03;5007119;28;20276;-69
2023/02/14 00:09:48;;;;;;;27.93;17.43;;;;;;;5.76;55.48;99249.34;5005491;28;20213;-69
2023/02/14 00:12:14;;;;;;;33.20;17.67;;;;;;;5.72;55.40;99253.00;5005278;28;20197;-69
2023/02/14 00:17:23;;;;;;;31.67;17.50;;;;;;;5.64;55.61;99251.63;4993946;28;20196;-70
2023/02/14 00:19:49;;;;;;;31.07;18.30;;;;;;;5.53;56.10;99240.88;5006722;28;20506;-69
2023/02/14 00:22:14;;;;;;;28.27;17.57;;;;;;;5.62;56.19;99240.44;5015234;28;20196;-70
2023/02/14 00:24:40;;;;;;;31.20;18.30;;;;;;;5.72;55.79;99238.25;5025312;28;20224;-70
2023/02/14 00:27:05;;;;;;;27.30;17.27;;;;;;;5.68;55.79;99236.69;5017433;28;20184;-69
2023/02/14 00:29:31;;;;;;;27.20;17.60;;;;;;;5.70;55.88;99237.47;5025877;28;20181;-70
2023/02/14 00:31:57;;;;;;;29.37;16.70;;;;;;;5.73;55.80;99241.69;4993846;28;20234;-70
2023/02/14 00:34:23;;;;;;;27.83;16.40;;;;;;;5.64;56.09;99241.22;5006924;28;20909;-69
2023/02/14 00:36:49;;;;;;;28.80;18.10;;;;;;;5.60;56.10;99244.84;5005356;28;20183;-69
2023/02/14 00:39:14;;;;;;;35.63;17.93;;;;;;;5.31;56.39;99239.22;5006294;28;20185;-68
2023/02/14 00:41:41;;;;;;;28.40;17.60;;;;;;;5.43;56.21;99239.56;5006611;28;20671;-70
2023/02/14 00:44:08;;;;;;;31.40;18.47;;;;;;;5.37;56.25;99238.94;4999749;28;20228;-70
2023/02/14 00:46:33;;;;;;;33.97;18.00;;;;;;;5.47;56.51;99238.53;4997529;28;20469;-69
2023/02/14 00:48:59;;;;;;;28.17;18.00;;;;;;;5.36;56.20;99245.06;4999181;28;20796;-69
2023/02/14 00:51:24;;;;;;;27.63;17.33;;;;;;;5.44;56.09;99246.47;5005828;28;20272;-69
2023/02/14 00:53:50;;;;;;;29.07;17.37;;;;;;;5.59;55.53;99237.97;5005515;28;20164;-69
2023/02/14 00:56:16;;;;;;;25.63;15.90;;;;;;;5.54;55.38;99238.19;5008054;28;20205;-68
2023/02/14 00:58:42;;;;;;;27.23;17.43;;;;;;;5.50;55.89;99239.22;5004681;28;20420;-69
2023/02/14 01:01:07;;;;;;;26.53;16.57;;;;;;;5.59;55.21;99244.94;4995211;28;20540;-70
2023/02/14 01:03:33;;;;;;;29.07;18.30;;;;;;;5.54;56.14;99245.97;5003427;28;20724;-69
2023/02/14 01:05:59;;;;;;;28.70;16.33;;;;;;;5.57;55.03;99242.38;5000227;28;20196;-69
2023/02/14 01:08:24;;;;;;;28.73;16.73;;;;;;;5.67;55.36;99248.03;5004582;28;20185;-70
2023/02/14 01:10:50;;;;;;;27.97;17.43;;;;;;;5.73;54.38;99250.34;4999260;28;20192;-69
2023/02/14 01:13:16;;;;;;;25.90;16.27;;;;;;;5.68;54.75;99236.69;4999438;28;20338;-69
2023/02/14 01:15:44;;;;;;;25.93;16.90;;;;;;;5.62;55.28;99243.03;5006142;28;20610;-69
2023/02/14 01:18:10;;;;;;;27.40;16.90;;;;;;;5.60;55.09;99241.44;4999161;28;20436;-69
2023/02/14 01:20:36;;;;;;;32.60;16.40;;;;;;;5.53;54.78;99246.06;4996436;28;20454;-70
2023/02/14 01:23:01;;;;;;;30.00;17.10;;;;;;;5.51;54.57;99247.88;4999648;28;20193;-69
2023/02/14 01:25:27;;;;;;;21.50;15.27;;;;;;;5.51;54.91;99253.09;5003076;28;20215;-69
2023/02/14 01:27:53;;;;;;;26.93;16.30;;;;;;;5.23;56.04;99247.34;5007771;28;20852;-70
2023/02/14 01:30:18;;;;;;;29.40;16.17;;;;;;;5.38;55.43;99239.78;5005518;28;20479;-70
2023/02/14 01:32:44;;;;;;;26.70;16.20;;;;;;;5.43;55.76;99242.16;5003283;28;20230;-70
2023/02/14 01:35:10;;;;;;;26.10;16.80;;;;;;;5.45;55.76;99241.22;5006799;28;20212;-70
2023/02/14 01:37:35;;;;;;;25.00;15.50;;;;;;;5.00;56.79;99240.59;5002888;28;20203;-70
2023/02/14 01:40:01;;;;;;;26.33;16.67;;;;;;;4.97;57.27;99235.53;5003161;28;20220;-69
2023/02/14 01:42:27;;;;;;;29.53;17.47;;;;;;;5.08;57.00;99240.25;4998010;28;20196;-70
2023/02/14 01:44:56;;;;;;;27.47;17.13;;;;;;;5.07;57.17;99234.19;5003396;28;20447;-69
2023/02/14 01:47:22;;;;;;;25.17;15.70;;;;;;;4.66;57.53;99229.06;5007669;28;20554;-70
2023/02/14 01:49:51;;;;;;;27.40;17.07;;;;;;;4.78;57.54;99232.06;4981189;28;20427;-69
2023/02/14 01:52:47;;;;;;;27.47;17.17;;;;;;;5.12;57.07;99235.75;4989168;28;20425;-69
2023/02/14 01:55:18;;;;;;;28.27;16.20;;;;;;;5.15;56.56;99235.63;4993221;28;20810;-69
2023/02/14 01:58:00;;;;;;;28.90;17.90;;;;;;;5.18;56.20;99228.53;4988627;28;20420;-70
2023/02/14 02:03:11;;;;;;;28.90;16.60;;;;;;;5.28;56.06;99235.91;5003460;28;20456;-69
2023/02/14 02:05:40;;;;;;;26.67;16.53;;;;;;;5.13;56.40;99232.25;4987102;28;20565;-68
2023/02/14 02:08:05;;;;;;;26.30;17.10;;;;;;;5.27;55.91;99234.22;4988541;28;20790;-70
2023/02/14 02:10:31;;;;;;;25.20;15.53;;;;;;;5.27;56.22;99237.69;5004528;28;20476;-70
2023/02/14 02:13:03;;;;;;;30.23;17.40;;;;;;;5.18;55.52;99233.75;5001705;28;20180;-69
2023/02/14 02:15:34;;;;;;;27.00;16.80;;;;;;;5.18;56.13;99232.88;4987081;28;20680;-70
2023/02/14 02:18:10;;;;;;;26.10;15.57;;;;;;;5.23;55.93;99231.75;4984695;28;20486;-69
2023/02/14 02:21:08;;;;;;;24.97;15.67;;;;;;;5.23;55.29;99230.94;4955294;28;20451;-70
2023/02/14 02:23:45;;;;;;;24.40;15.40;;;;;;;5.25;56.18;99242.09;4980112;28;20471;-69
2023/02/14 02:26:25;;;;;;;25.73;15.40;;;;;;;5.28;55.40;99236.78;5006946;28;20439;-70
2023/02/14 02:29:18;;;;;;;33.27;15.57;;;;;;;5.33;55.61;99232.19;5000144;28;20881;-69
2023/02/14 02:32:22;;;;;;;24.10;16.30;;;;;;;5.22;55.52;99224.03;4997450;28;20415;-67
2023/02/14 02:35:16;;;;;;;24.73;15.70;;;;;;;5.25;55.25;99223.91;4974833;28;20453;-70
2023/02/14 02:38:04;;;;;;;26.30;15.90;;;;;;;5.24;55.32;99224.81;5006587;28;20430;-69
2023/02/14 02:41:04;;;;;;;25.97;15.97;;;;;;;5.31;55.19;99223.63;4984473;28;20439;-69
2023/02/14 02:43:44;;;;;;;30.20;16.33;;;;;;;5.18;55.46;99222.47;5007548;28;20455;-69
2023/02/14 02:46:48;;;;;;;26.37;14.63;;;;;;;5.17;55.73;99223.38;4985389;28;20818;-69
2023/02/14 02:56:44;;;;;;;29.37;15.37;;;;;;;5.23;55.67;99220.53;5006576;28;20450;-70
2023/02/14 02:58:18;;;;;;;24.73;15.30;;;;;;;5.29;55.43;99220.28;4982238;28;20436;-69
2023/02/14 03:00:45;;;;;;;25.33;15.17;;;;;;;5.30;55.23;99224.53;4985463;28;20459;-70
2023/02/14 03:05:54;;;;;;;23.23;14.73;;;;;;;5.39;53.99;99220.66;5006659;28;20549;-69
2023/02/14 03:08:20;;;;;;;24.87;14.90;;;;;;;5.40;54.50;99219.75;4999222;28;20432;-69
2023/02/14 03:10:45;;;;;;;26.93;15.60;;;;;;;5.22;54.72;99218.84;4998418;28;20205;-69
2023/02/14 03:13:24;;;;;;;31.97;17.73;;;;;;;4.96;55.99;99220.84;4995625;28;20197;-68
2023/02/14 03:16:27;;;;;;;23.70;15.20;;;;;;;4.90;56.11;99223.72;4982977;28;20204;-71
2023/02/14 03:22:48;;;;;;;23.63;14.57;;;;;;;5.01;55.66;99236.22;4999605;28;20419;-70
2023/02/14 03:25:25;;;;;;;26.97;15.83;;;;;;;4.97;55.99;99232.09;4912798;29;20438;-69
2023/02/14 03:28:01;;;;;;;27.10;16.60;;;;;;;4.94;55.88;99229.63;4938331;29;20438;-69
2023/02/14 03:30:56;;;;;;;27.03;15.53;;;;;;;4.97;55.52;99229.50;4959264;28;20435;-68
2023/02/14 03:33:29;;;;;;;28.80;16.87;;;;;;;4.99;55.33;99225.91;4977257;28;20428;-70
2023/02/14 03:36:04;;;;;;;23.30;15.20;;;;;;;5.01;55.97;99231.03;4961059;28;20479;-70
2023/02/14 03:38:30;;;;;;;24.10;16.60;;;;;;;4.99;55.82;99232.84;5002477;28;20966;-68
2023/02/14 03:41:00;;;;;;;25.40;16.10;;;;;;;5.06;56.01;99237.72;4997617;28;20447;-69
2023/02/14 03:43:29;;;;;;;25.17;16.33;;;;;;;4.90;56.06;99229.75;4993794;28;20533;-70
2023/02/14 03:46:06;;;;;;;28.10;16.50;;;;;;;4.82;56.10;99229.25;4987954;28;20448;-70
2023/02/14 03:48:32;;;;;;;27.13;17.30;;;;;;;4.84;56.07;99221.38;4985796;28;20517;-69
2023/02/14 03:50:58;;;;;;;28.27;16.60;;;;;;;4.93;56.43;99228.75;4986086;28;20455;-69
2023/02/14 03:53:27;;;;;;;28.63;16.43;;;;;;;4.89;56.12;99216.84;5011036;28;20431;-69
2023/02/14 03:56:02;;;;;;;24.90;15.33;;;;;;;5.02;55.74;99228.38;4989691;28;20446;-69
2023/02/14 03:58:30;;;;;;;25.00;16.10;;;;;;;4.98;55.67;99220.78;5004157;28;20450;-68
2023/02/14 04:01:10;;;;;;;27.77;15.67;;;;;;;4.90;56.24;99218.53;4988265;28;20427;-69
2023/02/14 04:03:38;;;;;;;25.00;16.00;;;;;;;4.92;55.75;99224.47;4975478;28;20987;-70
2023/02/14 04:06:04;;;;;;;27.97;16.63;;;;;;;4.95;55.53;99216.56;4991199;28;21062;-70
2023/02/14 04:08:29;;;;;;;29.20;18.53;;;;;;;4.96;55.62;99213.03;4987334;28;20521;-70
2023/02/14 04:10:57;;;;;;;29.27;17.07;;;;;;;4.82;56.56;99215.41;5011661;28;20192;-70
2023/02/14 04:13:22;;;;;;;28.40;17.20;;;;;;;4.62;56.31;99219.72;5005989;28;20189;-69
2023/02/14 04:15:47;;;;;;;28.80;17.50;;;;;;;4.66;56.98;99217.81;5005191;28;20442;-70
2023/02/14 04:20:57;;;;;;;27.60;16.27;;;;;;;4.76;56.97;99217.38;5000934;28;20647;-68
2023/02/14 04:23:22;;;;;;;29.43;16.97;;;;;;;4.78;56.62;99219.06;5007656;28;20467;-69
2023/02/14 04:25:48;;;;;;;28.50;17.37;;;;;;;4.80;57.09;99215.47;5006569;28;20216;-69
2023/02/14 04:28:13;;;;;;;26.37;17.17;;;;;;;4.86;56.78;99214.38;5000687;28;20185;-69
2023/02/14 04:30:39;;;;;;;27.77;17.17;;;;;;;4.71;57.03;99213.28;4972451;28;20185;-69
2023/02/14 04:33:06;;;;;;;29.23;17.03;;;;;;;4.75;56.92;99214.81;5003900;28;20180;-69
2023/02/14 04:35:32;;;;;;;27.73;16.87;;;;;;;4.75;56.63;99212.22;5005846;28;20200;-69
2023/02/14 04:38:09;;;;;;;28.47;17.30;;;;;;;4.69;57.26;99209.91;5004047;28;20421;-68
2023/02/14 04:40:35;;;;;;;27.90;16.50;;;;;;;4.75;56.99;99210.47;4978273;28;20192;-68
2023/02/14 04:43:00;;;;;;;29.93;18.07;;;;;;;4.79;56.98;99205.16;4984223;28;20546;-69
2023/02/14 04:45:26;;;;;;;32.90;17.93;;;;;;;4.71;57.14;99208.09;4992015;28;20217;-68
2023/02/14 04:47:51;;;;;;;31.37;18.00;;;;;;;4.72;57.29;99202.81;4986035;28;20189;-70
2023/02/14 04:50:17;;;;;;;31.57;18.63;;;;;;;4.45;57.10;99203.06;5005717;28;20193;-70
2023/02/14 04:52:42;;;;;;;35.43;19.83;;;;;;;4.65;57.88;99201.41;5005483;28;20188;-70
2023/02/14 04:55:08;;;;;;;34.97;19.37;;;;;;;4.73;57.79;99204.50;4984598;28;20642;-70
2023/02/14 04:57:33;;;;;;;29.27;18.03;;;;;;;4.72;57.08;99205.41;5003335;28;20235;-69
2023/02/14 04:59:59;;;;;;;27.23;16.23;;;;;;;4.52;56.80;99210.63;5005291;28;20187;-69
2023/02/14 05:02:25;;;;;;;31.13;17.77;;;;;;;4.54;57.24;99212.25;5001847;28;20208;-70
2023/02/14 05:04:50;;;;;;;29.53;18.30;;;;;;;4.50;57.25;99209.84;5004952;28;20240;-69
2023/02/14 05:07:16;;;;;;;31.30;18.37;;;;;;;4.61;56.99;99212.81;5007015;28;20559;-69
2023/02/14 05:09:41;;;;;;;35.40;19.80;;;;;;;4.71;57.22;99208.91;5001177;28;20328;-70
2023/02/14 05:12:07;;;;;;;33.90;19.33;;;;;;;4.80;57.09;99206.81;4998228;28;20680;-69
2023/02/14 05:14:32;;;;;;;29.80;18.30;;;;;;;4.75;56.95;99205.28;5001718;28;20617;-69
2023/02/14 05:16:57;;;;;;;31.30;19.00;;;;;;;4.75;56.28;99212.22;5009748;28;20287;-69
2023/02/14 05:19:23;;;;;;;29.03;17.80;;;;;;;4.55;57.39;99213.06;4997765;28;20265;-70
2023/02/14 05:21:48;;;;;;;31.33;19.10;;;;;;;4.58;57.93;99212.94;4993913;28;20191;-70
2023/02/14 05:24:15;;;;;;;33.70;19.67;;;;;;;4.46;57.96;99209.13;5006432;28;20292;-69
2023/02/14 05:26:40;;;;;;;32.87;19.80;;;;;;;4.58;58.01;99210.34;4986719;28;20260;-68
2023/02/14 05:29:06;;;;;;;32.03;19.73;;;;;;;4.59;57.74;99202.50;4976910;28;20893;-70
2023/02/14 05:31:31;;;;;;;33.73;18.90;;;;;;;4.54;57.46;99208.78;5009141;28;20184;-69
2023/02/14 05:33:57;;;;;;;33.87;19.43;;;;;;;4.62;58.08;99209.31;4995200;28;20656;-70
2023/02/14 05:36:22;;;;;;;35.53;20.33;;;;;;;4.59;57.61;99212.03;5008477;28;20300;-69
2023/02/14 05:38:47;;;;;;;33.43;19.40;;;;;;;4.55;57.80;99216.53;4996915;28;20181;-70
2023/02/14 05:41:13;;;;;;;41.00;19.83;;;;;;;4.56;57.81;99204.38;4996805;28;20656;-69
2023/02/14 05:43:38;;;;;;;34.17;19.83;;;;;;;4.56;58.46;99214.75;5008092;28;20227;-70
2023/02/14 05:46:04;;;;;;;28.37;17.80;;;;;;;4.56;58.77;99209.56;5003391;28;20204;-70
2023/02/14 05:48:29;;;;;;;32.23;19.33;;;;;;;4.64;58.73;99217.91;4999773;28;20180;-70
2023/02/14 05:50:55;;;;;;;30.50;18.93;;;;;;;4.73;57.64;99211.44;4985246;28;20802;-70
2023/02/14 05:53:20;;;;;;;34.87;20.90;;;;;;;4.76;57.10;99211.31;5008200;28;20259;-70
2023/02/14 05:55:46;;;;;;;30.30;18.53;;;;;;;4.74;57.28;99213.13;5005251;28;20629;-69
2023/02/14 05:58:11;;;;;;;35.13;18.00;;;;;;;4.76;56.89;99209.56;4994958;28;20186;-68
2023/02/14 06:00:37;;;;;;;35.20;19.07;;;;;;;4.80;56.65;99212.00;5005934;28;20280;-69
2023/02/14 06:03:03;;;;;;;35.43;20.60;;;;;;;4.75;57.53;99212.22;4985596;28;20208;-70
2023/02/14 06:05:28;;;;;;;38.73;19.87;;;;;;;4.74;57.95;99214.00;4990674;28;20287;-70
2023/02/14 06:07:54;;;;;;;33.13;19.80;;;;;;;4.73;57.71;99216.63;4992687;28;20184;-69
2023/02/14 06:10:21;;;;;;;32.80;19.00;;;;;;;4.64;57.35;99220.50;5000893;28;20275;-69
2023/02/14 06:12:48;;;;;;;34.70;19.20;;;;;;;4.62;56.77;99224.91;5005232;28;20180;-70
2023/02/14 06:15:13;;;;;;;30.60;18.50;;;;;;;4.60;56.01;99224.94;4998984;28;20536;-69
2023/02/14 06:17:39;;;;;;;31.70;18.90;;;;;;;4.63;56.28;99230.94;5006944;28;20428;-69
2023/02/14 06:20:05;;;;;;;29.63;19.03;;;;;;;4.65;56.88;99224.78;5000054;28;20185;-69
2023/02/14 06:22:30;;;;;;;32.83;19.77;;;;;;;4.56;57.40;99227.75;4995932;28;20188;-70
2023/02/14 06:24:56;;;;;;;32.37;19.93;;;;;;;4.52;57.40;99231.41;5002327;28;20445;-69
2023/02/14 06:27:21;;;;;;;36.40;20.10;;;;;;;4.45;57.01;99234.25;5003351;28;20283;-70
2023/02/14 06:29:47;;;;;;;37.53;20.00;;;;;;;4.52;57.78;99237.44;4997895;28;20612;-70
2023/02/14 06:32:12;;;;;;;34.70;20.43;;;;;;;4.54;58.23;99235.63;5004765;28;20593;-71
2023/02/14 06:34:39;;;;;;;37.50;21.07;;;;;;;4.60;57.65;99231.91;4997795;28;20228;-67
2023/02/14 06:37:05;;;;;;;37.00;20.53;;;;;;;4.62;57.75;99235.28;5006726;28;20188;-71
2023/02/14 06:39:31;;;;;;;38.40;21.37;;;;;;;4.67;57.44;99235.94;4985639;28;20475;-71
2023/02/14 06:41:56;;;;;;;32.00;19.83;;;;;;;4.58;57.16;99239.78;4997071;28;20446;-69
2023/02/14 06:44:22;;;;;;;31.63;19.03;;;;;;;4.61;57.50;99249.19;5003367;28;20291;-68
2023/02/14 06:46:47;;;;;;;34.13;20.00;;;;;;;4.66;57.65;99239.47;4972765;28;20184;-71
2023/02/14 06:49:13;;;;;;;33.80;18.77;;;;;;;4.71;56.99;99234.06;4950542;28;20339;-68
2023/02/14 06:51:38;;;;;;;33.23;19.30;;;;;;;4.81;56.78;99229.28;4968281;28;20181;-68
2023/02/14 06:54:04;;;;;;;32.13;18.90;;;;;;;4.80;56.66;99232.81;4973651;28;20176;-67
2023/02/14 06:56:29;;;;;;;31.67;19.57;;;;;;;4.74;57.28;99237.38;4994339;28;20196;-69
2023/02/14 06:58:54;;;;;;;34.63;20.47;;;;;;;4.69;56.97;99233.28;5001868;28;20180;-69
2023/02/14 07:01:20;;;;;;;35.90;18.93;;;;;;;4.58;56.94;99231.13;4983399;28;20267;-68
2023/02/14 07:03:45;;;;;;;36.80;21.93;;;;;;;4.60;56.33;99230.16;5003025;28;20239;-69
2023/02/14 07:06:11;;;;;;;35.83;19.87;;;;;;;4.62;56.09;99224.91;5004848;28;20228;-70
2023/02/14 07:08:36;;;;;;;40.63;19.20;;;;;;;4.64;56.11;99230.88;5006794;28;20208;-69
2023/02/14 07:11:02;;;;;;;36.97;20.00;;;;;;;4.70;56.05;99220.22;5000190;28;20268;-69
2023/02/14 07:13:27;;;;;;;35.83;20.17;;;;;;;4.71;56.15;99221.06;5003277;28;20192;-70
2023/02/14 07:15:53;;;;;;;33.00;19.47;;;;;;;4.81;55.84;99214.56;5001874;28;20556;-69
2023/02/14 07:18:18;;;;;;;37.50;20.77;;;;;;;4.91;55.26;99215.03;5002387;28;20288;-70
2023/02/14 07:20:46;;;;;;;35.00;19.73;;;;;;;4.92;55.31;99216.69;5000835;28;20707;-73
2023/02/14 07:23:12;;;;;;;32.87;20.00;;;;;;;4.94;56.87;99227.84;5002583;28;20217;-74
2023/02/14 07:25:37;;;;;;;37.37;19.57;;;;;;;5.23;56.76;99220.53;4990662;28;20586;-68
2023/02/14 07:28:03;;;;;;;34.77;20.47;;;;;;;5.46;56.70;99226.44;4963486;28;20196;-68
2023/02/14 07:30:29;;;;;;;38.43;23.20;;;;;;;5.47;56.17;99220.31;4960696;28;20184;-69
2023/02/14 07:32:55;;;;;;;35.27;20.20;;;;;;;5.53;56.40;99217.44;4972158;28;20544;-71
2023/02/14 07:35:21;;;;;;;36.90;21.33;;;;;;;5.39;55.42;99215.47;4968721;28;20208;-71
2023/02/14 07:37:48;;;;;;;35.80;23.10;;;;;;;5.37;55.92;99217.28;5005411;28;20502;-74
2023/02/14 07:40:14;;;;;;;32.40;20.40;;;;;;;5.23;55.71;99216.16;5000969;28;20188;-69
2023/02/14 07:42:39;;;;;;;37.57;20.53;;;;;;;5.23;56.32;99220.53;5000905;28;20426;-71
2023/02/14 07:45:06;;;;;;;42.03;21.50;;;;;;;5.20;56.13;99221.50;5004741;28;20256;-75
2023/02/14 07:47:31;;;;;;;40.67;21.30;;;;;;;5.29;56.41;99225.47;5004108;28;20191;-71
2023/02/14 07:49:57;;;;;;;37.43;22.43;;;;;;;5.38;56.69;99230.25;5001797;28;20424;-69
2023/02/14 07:52:22;;;;;;;40.80;22.40;;;;;;;5.37;56.77;99223.34;5003411;28;20871;-69
2023/02/14 07:54:48;;;;;;;44.00;23.40;;;;;;;5.42;56.30;99227.50;5006454;28;20682;-70
2023/02/14 07:57:13;;;;;;;41.27;24.57;;;;;;;5.53;56.10;99220.88;5000582;28;20188;-69
2023/02/14 07:59:39;;;;;;;59.03;24.17;;;;;;;5.55;56.62;99213.00;5000060;28;20315;-70
2023/02/14 08:02:04;;;;;;;39.23;23.17;;;;;;;5.46;56.69;99219.50;5001869;28;20181;-70
2023/02/14 08:04:30;;;;;;;39.90;22.50;;;;;;;5.54;57.09;99219.97;5000408;28;20201;-70
2023/02/14 08:06:55;;;;;;;40.33;22.20;;;;;;;5.68;56.75;99216.72;4991676;28;20697;-69
2023/02/14 08:09:23;;;;;;;41.27;22.20;;;;;;;5.70;56.72;99211.44;4994789;28;20185;-70
2023/02/14 08:14:37;;;;;;;34.37;21.33;;;;;;;5.89;56.59;99206.22;4998851;28;20443;-70
2023/02/14 08:17:03;;;;;;;34.07;19.90;;;;;;;5.98;56.41;99202.34;4998021;28;20454;-69
2023/02/14 08:19:29;;;;;;;36.87;21.80;;;;;;;6.11;56.25;99213.84;4999013;28;20196;-71
2023/02/14 08:21:54;;;;;;;36.30;23.87;;;;;;;6.33;55.72;99217.16;4992582;28;20565;-69
2023/02/14 08:24:20;;;;;;;36.43;21.70;;;;;;;6.61;55.76;99207.03;5008211;28;20467;-69
2023/02/14 08:26:45;;;;;;;38.73;21.23;;;;;;;7.00;55.33;99197.22;4996887;28;20185;-73
2023/02/14 08:29:10;;;;;;;32.50;20.40;;;;;;;7.40;54.23;99194.28;5002365;28;20276;-70
2023/02/14 08:31:36;;;;;;;34.17;21.23;;;;;;;7.74;52.98;99195.00;5010579;28;20267;-71
2023/02/14 08:34:05;;;;;;;37.00;21.03;;;;;;;8.00;52.26;99197.91;5006241;28;20181;-72
2023/02/14 08:36:34;;;;;;;31.50;19.90;;;;;;;8.25;50.90;99201.75;5010709;28;20204;-69
2023/02/14 08:39:00;;;;;;;34.40;21.27;;;;;;;8.54;50.87;99202.69;4996235;28;20430;-69
2023/02/14 08:41:25;;;;;;;32.13;19.77;;;;;;;8.86;49.88;99192.09;5008171;28;20485;-70
2023/02/14 08:43:51;;;;;;;31.57;20.60;;;;;;;9.08;49.18;99193.38;5003985;28;20462;-71
2023/02/14 08:46:16;;;;;;;29.53;19.90;;;;;;;9.30;48.53;99192.91;5005032;28;20208;-71
2023/02/14 08:48:42;;;;;;;32.10;20.70;;;;;;;9.53;47.70;99188.81;5007752;28;20643;-69
2023/02/14 08:51:11;;;;;;;29.27;20.40;;;;;;;9.78;46.62;99189.88;5007763;28;20181;-70
2023/02/14 08:53:36;;;;;;;30.60;20.40;;;;;;;9.71;46.39;99188.59;4988275;28;20914;-70
2023/02/14 08:56:13;;;;;;;30.63;19.17;;;;;;;10.20;46.51;99195.06;5001381;28;20448;-70
2023/02/14 08:58:39;;;;;;;31.60;20.17;;;;;;;10.24;46.34;99191.28;5000267;28;20223;-70
2023/02/14 09:01:13;;;;;;;26.00;18.63;;;;;;;10.38;45.72;99187.78;4989008;28;20452;-71
2023/02/14 09:03:38;;;;;;;26.73;19.00;;;;;;;10.67;44.96;99186.75;4982486;28;20459;-72
2023/02/14 09:06:05;;;;;;;30.57;18.80;;;;;;;10.97;45.00;99182.97;5000281;28;20463;-69
2023/02/14 09:08:33;;;;;;;31.50;20.80;;;;;;;11.16;44.23;99183.38;4982426;28;20238;-70
2023/02/14 09:11:05;;;;;;;27.50;18.53;;;;;;;11.36;44.19;99183.72;5004477;28;20439;-70
2023/02/14 09:13:30;;;;;;;30.00;20.10;;;;;;;11.21;44.01;99181.25;4999850;28;20516;-70
2023/02/14 09:15:56;;;;;;;28.07;19.63;;;;;;;11.25;43.09;99187.13;4988534;28;20517;-69
2023/02/14 09:18:21;;;;;;;28.70;19.20;;;;;;;11.27;43.33;99184.38;4989031;28;20239;-69
2023/02/14 09:20:47;;;;;;;25.23;18.70;;;;;;;11.67;43.25;99184.19;4991589;28;20211;-71
2023/02/14 09:23:12;;;;;;;25.87;18.13;;;;;;;11.92;42.94;99185.00;5001714;28;20308;-71
2023/02/14 09:25:38;;;;;;;29.10;18.77;;;;;;;12.13;42.39;99172.94;4990125;28;20653;-72
2023/02/14 09:28:03;;;;;;;29.00;19.30;;;;;;;12.31;41.80;99174.31;4991739;28;20212;-71
2023/02/14 09:30:28;;;;;;;25.40;18.00;;;;;;;12.40;41.73;99166.56;4993507;28;20185;-69
2023/02/14 09:32:54;;;;;;;28.53;18.17;;;;;;;12.86;41.10;99164.00;4996593;28;20844;-70
2023/02/14 09:38:03;;;;;;;25.40;17.70;;;;;;;13.04;40.55;99157.31;4992392;28;20549;-72
2023/02/14 09:40:30;;;;;;;23.80;17.00;;;;;;;13.17;40.05;99156.34;4990423;28;20427;-70
2023/02/14 09:43:37;;;;;;;23.40;17.20;;;;;;;13.41;39.73;99158.84;4981376;28;20188;-71
2023/02/14 09:46:05;;;;;;;24.30;16.73;;;;;;;13.52;39.31;99155.34;4975612;28;20554;-69
2023/02/14 09:48:35;;;;;;;23.40;15.77;;;;;;;13.42;39.81;99155.22;4975406;28;20826;-70
2023/02/14 09:51:11;;;;;;;21.03;16.50;;;;;;;13.47;39.54;99155.72;4992154;28;20494;-72
2023/02/14 09:53:44;;;;;;;29.73;16.37;;;;;;;13.76;39.52;99156.94;4974598;28;20427;-70
2023/02/14 09:56:21;;;;;;;23.23;16.13;;;;;;;13.89;39.21;99154.97;4991352;28;21026;-69
2023/02/14 09:58:58;;;;;;;23.00;15.87;;;;;;;14.15;38.95;99146.72;4979544;28;20423;-70
2023/02/14 10:01:28;;;;;;;20.90;15.40;;;;;;;14.47;38.57;99150.25;4986947;28;20416;-70
2023/02/14 10:04:27;;;;;;;23.60;16.60;;;;;;;14.68;38.01;99145.00;4982230;28;20466;-71
2023/02/14 10:07:10;;;;;;;28.70;16.97;;;;;;;14.82;37.73;99139.38;4933856;28;20594;-70
2023/02/14 10:09:45;;;;;;;21.70;15.63;;;;;;;15.15;36.72;99140.03;4978111;28;20858;-71
2023/02/14 10:12:25;;;;;;;19.77;15.63;;;;;;;15.22;37.25;99129.78;4988589;28;20423;-72
2023/02/14 10:14:54;;;;;;;22.97;15.07;;;;;;;15.42;36.67;99133.28;4981159;28;20444;-70
2023/02/14 10:17:37;;;;;;;21.37;15.50;;;;;;;15.37;36.25;99130.25;4987119;28;20439;-71
2023/02/14 10:20:06;;;;;;;20.97;14.70;;;;;;;15.66;36.19;99132.91;4978356;28;20819;-70
2023/02/14 10:22:42;;;;;;;21.30;14.50;;;;;;;15.75;35.64;99133.06;4989169;28;20965;-72
2023/02/14 10:25:23;;;;;;;20.53;14.80;;;;;;;15.58;35.97;99126.66;4982285;28;21010;-69
2023/02/14 10:27:49;;;;;;;20.10;14.90;;;;;;;15.49;36.22;99126.50;4981876;28;20427;-72
2023/02/14 10:30:20;;;;;;;21.43;15.07;;;;;;;15.89;35.44;99124.75;5001204;28;20435;-71
2023/02/14 10:32:57;;;;;;;21.83;15.83;;;;;;;16.28;35.01;99123.84;4996753;28;20436;-72
2023/02/14 10:35:38;;;;;;;21.23;15.37;;;;;;;16.48;34.76;99118.53;4998963;28;20810;-72
2023/02/14 10:38:10;;;;;;;21.57;15.70;;;;;;;16.89;34.47;99103.19;4976044;28;20950;-72
2023/02/14 10:40:53;;;;;;;21.83;14.70;;;;;;;16.76;33.99;99100.88;4997405;28;20423;-70
2023/02/14 10:43:56;;;;;;;19.30;14.77;;;;;;;16.40;34.22;99106.84;4970357;28;20467;-68
2023/02/14 10:46:59;;;;;;;15.80;13.00;;;;;;;16.63;34.25;99100.38;4994839;28;20475;-70
2023/02/14 10:49:26;;;;;;;23.43;14.27;;;;;;;16.76;34.14;99098.22;4993783;28;20498;-70
2023/02/14 10:52:11;;;;;;;18.20;13.63;;;;;;;17.19;33.80;99094.16;4974712;28;20432;-72
2023/02/14 10:54:52;;;;;;;14.40;12.37;;;;;;;17.65;32.98;99102.03;4993762;28;20534;-70
2023/02/14 10:57:23;;;;;;;17.03;13.37;;;;;;;17.75;32.18;99098.50;4992024;28;20439;-70
2023/02/14 10:59:59;;;;;;;18.37;12.33;;;;;;;17.76;32.67;99090.38;4991079;28;20912;-72
2023/02/14 11:02:30;;;;;;;21.03;13.03;;;;;;;17.59;32.68;99084.09;4976301;28;20519;-71
2023/02/14 11:04:56;;;;;;;18.43;13.37;;;;;;;17.50;32.28;99079.72;4993224;28;20464;-69
2023/02/14 11:07:22;;;;;;;15.77;12.77;;;;;;;17.53;32.79;99073.28;4994875;28;20436;-72
2023/02/14 11:09:48;;;;;;;18.40;12.50;;;;;;;17.95;32.27;99078.75;5002983;28;20937;-70
2023/02/14 11:12:34;;;;;;;19.87;13.27;;;;;;;18.15;32.54;99067.97;5005555;28;20533;-70
2023/02/14 11:15:26;;;;;;;16.07;13.00;;;;;;;18.55;31.84;99069.22;4991417;28;20211;-72
2023/02/14 11:18:18;;;;;;;15.90;12.80;;;;;;;18.52;31.15;99066.91;4999406;28;20820;-70
2023/02/14 11:20:58;;;;;;;18.23;12.90;;;;;;;18.72;30.84;99054.19;4988805;28;20439;-71
2023/02/14 11:23:24;;;;;;;15.00;12.77;;;;;;;18.83;30.62;99058.38;4997724;28;20460;-71
2023/02/14 11:25:52;;;;;;;15.10;12.60;;;;;;;18.78;31.11;99054.53;4989735;28;20503;-72
2023/02/14 11:28:18;;;;;;;15.70;12.73;;;;;;;18.88;30.91;99055.25;4983276;28;20191;-74
2023/02/14 11:30:46;;;;;;;16.37;12.30;;;;;;;19.20;30.79;99056.38;5001754;28;20782;-69
2023/02/14 11:33:21;;;;;;;22.53;16.53;;;;;;;19.22;30.35;99053.53;5005774;28;20188;-68
2023/02/14 11:35:50;;;;;;;17.87;13.83;;;;;;;19.11;30.52;99052.88;4978170;28;20530;-71
2023/02/14 11:38:42;;;;;;;19.90;14.00;;;;;;;18.99;30.67;99046.19;4985185;28;20430;-71
2023/02/14 11:41:11;;;;;;;18.73;12.30;;;;;;;19.28;30.36;99040.44;4976603;28;21128;-70
2023/02/14 11:43:37;;;;;;;15.90;13.03;;;;;;;18.73;30.52;99039.91;4971721;28;20554;-72
2023/02/14 11:46:34;;;;;;;15.43;12.53;;;;;;;18.97;30.92;99040.19;4992626;28;20451;-69
2023/02/14 11:49:06;;;;;;;19.60;12.67;;;;;;;19.12;30.62;99030.59;4995594;28;20416;-71
2023/02/14 11:51:40;;;;;;;19.90;13.50;;;;;;;18.97;30.23;99030.38;4963547;28;20460;-73
2023/02/14 11:54:11;;;;;;;17.07;12.70;;;;;;;19.00;30.22;99029.25;4992253;28;20792;-71
2023/02/14 11:56:48;;;;;;;16.83;12.90;;;;;;;19.31;30.31;99029.47;4989419;28;20514;-71
2023/02/14 11:59:24;;;;;;;16.00;13.03;;;;;;;19.44;30.30;99028.97;4993867;28;20958;-71
2023/02/14 12:01:50;;;;;;;17.47;14.20;;;;;;;19.36;29.91;99021.00;5000995;28;20942;-73